createdAt,value
2019-05-06T00:00:26.745Z,8.20
2019-05-06T00:02:56.344Z,8.20
2019-05-06T00:05:25.783Z,8.20
2019-05-06T00:07:55.127Z,8.10
2019-05-06T00:10:29.961Z,8.20
2019-05-06T00:12:59.372Z,8.10
2019-05-06T00:15:28.983Z,8.10
2019-05-06T00:17:58.380Z,8.10
2019-05-06T00:20:27.788Z,8.10
2019-05-06T00:23:04.203Z,8.10
2019-05-06T00:25:46.539Z,8.30
2019-05-06T00:28:36.678Z,8.30
2019-05-06T00:31:12.637Z,8.10
2019-05-06T00:33:39.221Z,8.10
2019-05-06T00:36:08.520Z,8.20
2019-05-06T00:38:39.361Z,8.10
2019-05-06T00:41:11.565Z,8.10
2019-05-06T00:43:40.879Z,8.00
2019-05-06T00:46:10.172Z,8.00
2019-05-06T00:48:39.500Z,8.00
2019-05-06T00:51:08.743Z,8.00
2019-05-06T00:53:39.767Z,7.90
2019-05-06T00:56:09.056Z,8.00
2019-05-06T00:58:38.307Z,8.00
2019-05-06T01:01:07.759Z,8.10
2019-05-06T01:03:37.043Z,8.00
2019-05-06T01:06:06.492Z,8.00
2019-05-06T01:08:46.450Z,8.10
2019-05-06T01:11:15.781Z,8.10
2019-05-06T01:14:05.639Z,8.00
2019-05-06T01:16:35.039Z,8.00
2019-05-06T01:19:04.713Z,8.00
2019-05-06T01:21:34.429Z,7.90
2019-05-06T01:24:04.135Z,8.00
2019-05-06T01:26:33.880Z,8.00
2019-05-06T01:29:04.087Z,8.00
2019-05-06T01:31:42.926Z,8.00
2019-05-06T01:34:04.593Z,8.00
2019-05-06T01:36:34.464Z,8.00
2019-05-06T01:39:26.533Z,8.00
2019-05-06T01:42:04.589Z,8.00
2019-05-06T01:44:34.052Z,7.90
2019-05-06T01:47:03.788Z,7.80
2019-05-06T01:49:34.001Z,7.80
2019-05-06T01:52:04.095Z,7.80
2019-05-06T01:54:34.393Z,7.80
2019-05-06T01:57:04.720Z,7.70
2019-05-06T01:59:34.301Z,7.70
2019-05-06T02:02:04.474Z,7.70
2019-05-06T02:04:33.954Z,7.70
2019-05-06T02:07:03.934Z,7.60
2019-05-06T02:09:34.241Z,7.60
2019-05-06T02:12:04.723Z,7.60
2019-05-06T02:14:34.372Z,7.70
2019-05-06T02:17:03.860Z,7.70
2019-05-06T02:19:34.772Z,7.60
2019-05-06T02:22:09.758Z,7.60
2019-05-06T02:24:43.958Z,7.60
2019-05-06T02:27:13.944Z,7.60
2019-05-06T02:29:51.801Z,7.60
2019-05-06T02:32:36.517Z,7.50
2019-05-06T02:35:16.578Z,7.50
2019-05-06T02:37:46.614Z,7.30
2019-05-06T02:40:27.318Z,7.30
2019-05-06T02:42:56.764Z,7.30
2019-05-06T02:45:26.266Z,7.30
2019-05-06T02:48:07.450Z,7.20
2019-05-06T02:50:54.370Z,7.40
2019-05-06T02:53:25.916Z,7.40
2019-05-06T02:55:55.330Z,7.40
2019-05-06T02:58:24.646Z,7.40
2019-05-06T03:00:54.165Z,7.30
2019-05-06T03:03:23.542Z,7.20
2019-05-06T03:05:53.403Z,7.10
2019-05-06T03:08:23.742Z,7.00
2019-05-06T03:10:53.779Z,7.00
2019-05-06T03:13:23.896Z,7.00
2019-05-06T03:15:54.372Z,6.90
2019-05-06T03:18:24.007Z,6.80
2019-05-06T03:21:24.763Z,6.80
2019-05-06T03:23:59.599Z,6.70
2019-05-06T03:26:28.964Z,6.70
2019-05-06T03:28:58.403Z,6.70
2019-05-06T03:31:27.726Z,6.70
2019-05-06T03:34:22.055Z,6.70
2019-05-06T03:36:34.440Z,6.70
2019-05-06T03:38:59.342Z,6.70
2019-05-06T03:41:28.654Z,6.60
2019-05-06T03:43:57.926Z,6.60
2019-05-06T03:46:49.248Z,6.60
2019-05-06T03:49:18.742Z,6.60
2019-05-06T03:51:48.134Z,6.50
2019-05-06T03:54:18.146Z,6.50
2019-05-06T03:56:48.093Z,6.40
2019-05-06T03:59:17.830Z,6.40
2019-05-06T04:01:47.118Z,6.40
2019-05-06T04:04:16.428Z,6.60
2019-05-06T04:06:45.723Z,6.50
2019-05-06T04:09:15.202Z,6.60
2019-05-06T04:11:45.310Z,6.50
2019-05-06T04:14:16.482Z,6.40
2019-05-06T04:17:03.164Z,6.50
2019-05-06T04:19:36.878Z,6.50
2019-05-06T04:22:19.808Z,6.50
2019-05-06T04:24:59.439Z,6.40
2019-05-06T04:27:49.051Z,6.40
2019-05-06T04:30:19.245Z,6.40
2019-05-06T04:32:48.792Z,6.40
2019-05-06T04:35:18.112Z,6.50
2019-05-06T04:37:47.511Z,6.50
2019-05-06T04:40:16.910Z,6.50
2019-05-06T04:42:46.232Z,6.60
2019-05-06T04:45:17.276Z,6.50
2019-05-06T04:47:46.961Z,6.50
2019-05-06T04:50:16.580Z,6.60
2019-05-06T04:52:45.890Z,6.50
2019-05-06T04:55:15.177Z,6.50
2019-05-06T04:57:44.501Z,6.60
2019-05-06T05:00:15.084Z,6.60
2019-05-06T05:02:46.458Z,6.70
2019-05-06T05:05:15.530Z,6.80
2019-05-06T05:07:44.868Z,6.80
2019-05-06T05:10:23.301Z,6.80
2019-05-06T05:13:14.800Z,6.80
2019-05-06T05:16:02.286Z,6.70
2019-05-06T05:18:53.825Z,6.80
2019-05-06T05:21:23.143Z,6.90
2019-05-06T05:23:52.581Z,6.90
2019-05-06T05:26:22.563Z,6.80
2019-05-06T05:28:53.226Z,6.80
2019-05-06T05:31:23.018Z,6.80
2019-05-06T05:33:52.766Z,6.90
2019-05-06T05:36:23.215Z,7.00
2019-05-06T05:38:52.617Z,7.00
2019-05-06T05:41:23.319Z,7.10
2019-05-06T05:44:06.765Z,7.20
2019-05-06T05:46:36.178Z,7.10
2019-05-06T05:49:24.584Z,7.20
2019-05-06T05:51:54.141Z,7.20
2019-05-06T05:54:23.518Z,7.10
2019-05-06T05:56:53.047Z,7.20
2019-05-06T05:59:23.203Z,7.30
2019-05-06T06:01:53.233Z,7.30
2019-05-06T06:04:22.982Z,7.30
2019-05-06T06:06:52.468Z,7.40
2019-05-06T06:09:23.635Z,7.30
2019-05-06T06:11:54.605Z,7.30
2019-05-06T06:14:56.126Z,7.60
2019-05-06T06:17:45.916Z,7.60
2019-05-06T06:20:33.240Z,7.60
2019-05-06T06:23:13.433Z,7.50
2019-05-06T06:25:43.084Z,7.60
2019-05-06T06:28:12.732Z,7.50
2019-05-06T06:31:00.067Z,7.60
2019-05-06T06:33:29.692Z,7.60
2019-05-06T06:36:17.280Z,7.50
2019-05-06T06:38:59.237Z,7.60
2019-05-06T06:41:28.667Z,7.70
2019-05-06T06:44:02.306Z,7.80
2019-05-06T06:46:32.344Z,7.90
2019-05-06T06:49:03.220Z,8.00
2019-05-06T06:51:33.233Z,8.00
2019-05-06T06:54:03.557Z,7.90
2019-05-06T06:57:05.600Z,7.90
2019-05-06T06:59:44.784Z,8.00
2019-05-06T07:02:22.983Z,8.00
2019-05-06T07:05:05.065Z,8.10
2019-05-06T07:07:43.543Z,8.10
2019-05-06T07:10:06.076Z,8.10
2019-05-06T07:12:35.448Z,8.10
2019-05-06T07:15:04.872Z,8.20
2019-05-06T07:17:34.144Z,8.10
2019-05-06T07:20:06.976Z,8.20
2019-05-06T07:22:37.341Z,8.30
2019-05-06T07:25:08.391Z,8.40
2019-05-06T07:27:37.796Z,8.40
2019-05-06T07:30:07.738Z,8.60
2019-05-06T07:32:37.018Z,8.70
2019-05-06T07:35:06.488Z,8.80
2019-05-06T07:37:35.829Z,8.80
2019-05-06T07:40:07.072Z,8.90
2019-05-06T07:42:43.054Z,8.80
2019-05-06T07:45:32.858Z,8.80
2019-05-06T07:48:07.405Z,8.80
2019-05-06T07:50:36.731Z,9.00
2019-05-06T07:53:09.478Z,9.10
2019-05-06T07:55:39.529Z,9.20
2019-05-06T07:58:09.042Z,9.20
2019-05-06T08:00:39.049Z,9.10
2019-05-06T08:03:08.341Z,9.10
2019-05-06T08:05:51.589Z,9.40
2019-05-06T08:08:09.029Z,9.50
2019-05-06T08:10:38.333Z,9.60
2019-05-06T08:13:07.702Z,9.50
2019-05-06T08:15:37.282Z,9.50
2019-05-06T08:18:06.578Z,9.50
2019-05-06T08:20:38.912Z,9.70
2019-05-06T08:23:17.898Z,9.80
2019-05-06T08:25:49.352Z,9.70
2019-05-06T08:28:18.708Z,9.60
2019-05-06T08:30:48.146Z,9.60
2019-05-06T08:33:17.470Z,9.70
2019-05-06T08:35:46.822Z,9.60
2019-05-06T08:38:16.211Z,9.90
2019-05-06T08:40:45.617Z,9.90
2019-05-06T08:43:14.986Z,9.90
2019-05-06T08:45:44.399Z,9.80
2019-05-06T08:48:13.726Z,9.80
2019-05-06T08:50:49.560Z,9.80
2019-05-06T08:53:35.808Z,9.80
2019-05-06T08:56:07.098Z,9.80
2019-05-06T08:58:45.888Z,9.80
2019-05-06T09:01:22.961Z,9.90
2019-05-06T09:04:06.412Z,9.80
2019-05-06T09:06:29.978Z,9.90
2019-05-06T09:08:56.856Z,10.10
2019-05-06T09:11:25.955Z,10.20
2019-05-06T09:13:55.413Z,10.40
2019-05-06T09:16:24.811Z,10.40
2019-05-06T09:18:54.246Z,10.70
2019-05-06T09:21:23.918Z,10.70
2019-05-06T09:23:53.349Z,10.70
2019-05-06T09:26:27.185Z,10.60
2019-05-06T09:29:06.259Z,10.50
2019-05-06T09:31:42.927Z,10.60
2019-05-06T09:34:24.342Z,10.70
2019-05-06T09:37:13.313Z,10.80
2019-05-06T09:39:43.193Z,10.90
2019-05-06T09:42:12.986Z,10.80
2019-05-06T09:44:42.999Z,10.70
2019-05-06T09:47:18.477Z,10.60
2019-05-06T09:49:48.340Z,10.40
2019-05-06T09:52:17.657Z,10.50
2019-05-06T09:54:55.316Z,10.70
2019-05-06T09:57:28.186Z,10.80
2019-05-06T09:59:57.605Z,10.70
2019-05-06T10:02:26.901Z,10.80
2019-05-06T10:04:56.240Z,10.90
2019-05-06T10:07:25.825Z,11.00
2019-05-06T10:09:55.176Z,10.90
2019-05-06T10:12:24.646Z,10.90
2019-05-06T10:14:53.968Z,11.00
2019-05-06T10:17:23.368Z,11.00
2019-05-06T10:19:52.696Z,11.00
2019-05-06T10:22:23.312Z,10.90
2019-05-06T10:24:52.838Z,10.90
2019-05-06T10:27:22.766Z,10.80
2019-05-06T10:30:03.289Z,10.80
2019-05-06T10:32:45.605Z,10.80
2019-05-06T10:35:16.281Z,10.90
2019-05-06T10:38:08.784Z,10.90
2019-05-06T10:40:58.979Z,10.90
2019-05-06T10:43:28.663Z,10.90
2019-05-06T10:46:01.034Z,10.90
2019-05-06T10:48:29.513Z,10.90
2019-05-06T10:51:04.816Z,11.00
2019-05-06T10:53:34.196Z,11.00
2019-05-06T10:56:23.086Z,10.90
2019-05-06T10:58:52.822Z,10.80
2019-05-06T11:01:32.958Z,10.90
2019-05-06T11:04:02.869Z,11.10
2019-05-06T11:06:33.643Z,11.30
2019-05-06T11:09:03.398Z,11.40
2019-05-06T11:11:38.553Z,11.50
2019-05-06T11:14:03.980Z,11.80
2019-05-06T11:16:33.427Z,11.90
2019-05-06T11:19:05.139Z,11.70
2019-05-06T11:21:34.302Z,11.90
2019-05-06T11:24:06.246Z,11.90
2019-05-06T11:26:34.952Z,11.90
2019-05-06T11:29:09.718Z,11.70
2019-05-06T11:31:56.096Z,11.60
2019-05-06T11:34:42.746Z,11.50
2019-05-06T11:37:49.702Z,11.30
2019-05-06T11:40:16.982Z,11.40
2019-05-06T11:42:45.964Z,11.40
2019-05-06T11:45:15.658Z,11.40
2019-05-06T11:47:45.096Z,11.40
2019-05-06T11:50:14.793Z,11.50
2019-05-06T11:52:44.083Z,11.60
2019-05-06T11:55:27.559Z,12.10
2019-05-06T11:57:46.290Z,12.30
2019-05-06T12:00:18.397Z,12.30
2019-05-06T12:02:48.724Z,12.30
2019-05-06T12:05:18.465Z,12.20
2019-05-06T12:08:00.852Z,12.20
2019-05-06T12:10:19.007Z,12.20
2019-05-06T12:12:48.370Z,12.30
2019-05-06T12:15:17.753Z,12.20
2019-05-06T12:17:47.235Z,12.10
2019-05-06T12:20:16.760Z,12.10
2019-05-06T12:22:46.231Z,12.20
2019-05-06T12:25:15.829Z,12.20
2019-05-06T12:27:45.219Z,12.40
2019-05-06T12:30:17.032Z,12.50
2019-05-06T12:33:13.079Z,12.50
2019-05-06T12:35:46.432Z,12.40
2019-05-06T12:38:29.642Z,12.40
2019-05-06T12:40:53.041Z,12.50
2019-05-06T12:43:39.735Z,12.80
2019-05-06T12:46:33.984Z,13.00
2019-05-06T12:49:03.363Z,13.30
2019-05-06T12:51:32.757Z,13.00
2019-05-06T12:54:03.533Z,12.60
2019-05-06T12:56:33.133Z,12.60
2019-05-06T12:59:02.572Z,12.70
2019-05-06T13:01:34.040Z,12.80
2019-05-06T13:04:04.660Z,12.70
2019-05-06T13:06:34.105Z,12.50
2019-05-06T13:09:05.294Z,12.40
2019-05-06T13:11:34.868Z,12.30
2019-05-06T13:14:04.416Z,12.30
2019-05-06T13:16:33.733Z,12.30
2019-05-06T13:19:04.331Z,12.30
2019-05-06T13:21:33.675Z,12.30
2019-05-06T13:24:05.838Z,12.30
2019-05-06T13:26:35.122Z,12.50
2019-05-06T13:29:10.090Z,12.60
2019-05-06T13:31:39.564Z,12.50
2019-05-06T13:34:13.984Z,12.40
2019-05-06T13:36:43.676Z,12.50
2019-05-06T13:39:15.208Z,12.40
2019-05-06T13:41:45.263Z,12.40
2019-05-06T13:44:19.413Z,12.40
2019-05-06T13:46:52.876Z,12.70
2019-05-06T13:49:43.649Z,12.80
2019-05-06T13:52:14.908Z,12.70
2019-05-06T13:54:44.186Z,12.70
2019-05-06T13:57:13.588Z,12.80
2019-05-06T13:59:44.146Z,12.90
2019-05-06T14:02:34.076Z,12.90
2019-05-06T14:05:04.110Z,12.80
2019-05-06T14:07:34.481Z,12.80
2019-05-06T14:10:04.598Z,12.90
2019-05-06T14:12:33.922Z,12.80
2019-05-06T14:15:04.365Z,12.60
2019-05-06T14:17:33.905Z,12.60
2019-05-06T14:20:03.285Z,12.60
2019-05-06T14:22:32.775Z,12.70
2019-05-06T14:25:19.662Z,12.90
2019-05-06T14:27:52.638Z,12.90
2019-05-06T14:30:39.762Z,12.90
2019-05-06T14:33:12.657Z,13.00
2019-05-06T14:35:42.981Z,13.10
2019-05-06T14:38:13.604Z,13.30
2019-05-06T14:41:08.089Z,13.30
2019-05-06T14:43:37.140Z,13.30
2019-05-06T14:46:06.559Z,13.30
2019-05-06T14:48:35.964Z,13.10
2019-05-06T14:51:05.699Z,13.10
2019-05-06T14:53:35.435Z,13.10
2019-05-06T14:56:23.771Z,13.00
2019-05-06T14:59:08.416Z,13.00
2019-05-06T15:01:39.418Z,12.90
2019-05-06T15:04:08.793Z,12.90
2019-05-06T15:06:38.269Z,12.80
2019-05-06T15:09:15.019Z,12.70
2019-05-06T15:11:44.355Z,12.60
2019-05-06T15:14:13.932Z,12.50
2019-05-06T15:16:43.379Z,12.50
2019-05-06T15:19:12.985Z,12.60
2019-05-06T15:21:42.911Z,12.50
2019-05-06T15:24:14.209Z,12.80
2019-05-06T15:26:43.652Z,12.70
2019-05-06T15:29:13.185Z,12.50
2019-05-06T15:32:12.847Z,12.50
2019-05-06T15:34:56.600Z,12.30
2019-05-06T15:37:37.958Z,12.20
2019-05-06T15:40:09.014Z,12.10
2019-05-06T15:42:38.317Z,12.00
2019-05-06T15:45:07.727Z,12.10
2019-05-06T15:47:37.362Z,12.10
2019-05-06T15:50:07.463Z,12.10
2019-05-06T15:52:36.825Z,12.00
2019-05-06T15:55:06.279Z,12.00
2019-05-06T15:57:35.579Z,12.10
2019-05-06T16:00:05.582Z,12.00
2019-05-06T16:02:35.188Z,11.80
2019-05-06T16:05:06.554Z,11.90
2019-05-06T16:07:37.327Z,11.80
2019-05-06T16:10:13.160Z,11.80
2019-05-06T16:12:43.975Z,11.80
2019-05-06T16:15:13.287Z,11.90
2019-05-06T16:17:42.893Z,11.90
2019-05-06T16:20:12.932Z,11.70
2019-05-06T16:22:44.454Z,11.40
2019-05-06T16:25:15.982Z,11.40
2019-05-06T16:27:50.538Z,11.40
2019-05-06T16:30:23.837Z,11.20
2019-05-06T16:32:52.561Z,11.10
2019-05-06T16:35:22.844Z,11.10
2019-05-06T16:37:52.418Z,11.00
2019-05-06T16:40:22.955Z,11.10
2019-05-06T16:42:54.416Z,11.00
2019-05-06T16:45:23.701Z,11.00
2019-05-06T16:47:53.126Z,10.90
2019-05-06T16:50:22.841Z,10.70
2019-05-06T16:52:52.736Z,10.70
2019-05-06T16:55:36.777Z,10.80
2019-05-06T16:58:11.944Z,10.80
2019-05-06T17:00:42.951Z,10.80
2019-05-06T17:03:40.363Z,10.90
2019-05-06T17:06:23.118Z,10.80
2019-05-06T17:08:53.005Z,10.80
2019-05-06T17:11:27.893Z,10.80
2019-05-06T17:13:53.598Z,10.80
2019-05-06T17:16:22.926Z,10.80
2019-05-06T17:18:56.400Z,10.60
2019-05-06T17:21:23.437Z,10.70
2019-05-06T17:23:52.769Z,10.70
2019-05-06T17:26:25.604Z,10.80
2019-05-06T17:29:16.752Z,10.80
2019-05-06T17:32:02.534Z,10.90
2019-05-06T17:34:34.227Z,10.80
2019-05-06T17:37:15.935Z,10.80
2019-05-06T17:39:45.326Z,10.90
2019-05-06T17:42:14.665Z,10.80
2019-05-06T17:44:43.978Z,10.80
2019-05-06T17:47:22.906Z,10.60
2019-05-06T17:49:52.877Z,10.60
2019-05-06T17:52:23.309Z,10.70
2019-05-06T17:54:52.918Z,10.70
2019-05-06T17:57:22.573Z,10.60
2019-05-06T17:59:52.781Z,10.50
2019-05-06T18:02:23.771Z,10.50
2019-05-06T18:04:53.453Z,10.40
2019-05-06T18:07:22.887Z,10.30
2019-05-06T18:09:52.358Z,10.40
2019-05-06T18:12:23.193Z,10.50
2019-05-06T18:14:53.418Z,10.60
2019-05-06T18:17:23.026Z,10.60
2019-05-06T18:19:52.305Z,10.60
2019-05-06T18:22:22.687Z,10.50
2019-05-06T18:24:52.651Z,10.30
2019-05-06T18:27:25.358Z,10.30
2019-05-06T18:29:54.695Z,10.20
2019-05-06T18:32:24.044Z,10.30
2019-05-06T18:34:53.371Z,10.20
2019-05-06T18:37:23.362Z,10.20
2019-05-06T18:39:53.129Z,10.20
2019-05-06T18:42:23.616Z,10.20
2019-05-06T18:44:54.053Z,10.20
2019-05-06T18:47:23.648Z,10.00
2019-05-06T18:49:53.053Z,10.00
2019-05-06T18:52:22.985Z,10.00
2019-05-06T18:54:52.585Z,10.00
2019-05-06T18:57:22.638Z,10.00
2019-05-06T18:59:53.271Z,9.90
2019-05-06T19:02:23.053Z,10.00
2019-05-06T19:05:02.263Z,10.00
2019-05-06T19:07:33.330Z,10.00
2019-05-06T19:10:06.592Z,9.90
2019-05-06T19:12:40.790Z,9.80
2019-05-06T19:15:07.290Z,9.80
2019-05-06T19:17:36.782Z,9.70
2019-05-06T19:20:06.341Z,9.70
2019-05-06T19:22:35.665Z,9.60
2019-05-06T19:25:05.699Z,9.50
2019-05-06T19:27:35.216Z,9.60
2019-05-06T19:30:05.090Z,9.60
2019-05-06T19:32:35.299Z,9.50
2019-05-06T19:35:04.897Z,9.60
2019-05-06T19:37:34.739Z,9.50
2019-05-06T19:40:04.513Z,9.50
2019-05-06T19:42:46.034Z,9.40
2019-05-06T19:45:05.223Z,9.50
2019-05-06T19:47:34.558Z,9.60
2019-05-06T19:50:04.409Z,9.60
2019-05-06T19:52:33.754Z,9.40
2019-05-06T19:55:03.299Z,9.40
2019-05-06T19:57:32.906Z,9.50
2019-05-06T20:00:03.178Z,9.40
2019-05-06T20:02:32.857Z,9.30
2019-05-06T20:05:06.563Z,9.30
2019-05-06T20:07:47.342Z,9.20
2019-05-06T20:10:32.707Z,9.20
2019-05-06T20:13:05.213Z,9.10
2019-05-06T20:15:38.062Z,9.30
2019-05-06T20:18:08.493Z,9.30
2019-05-06T20:20:38.003Z,9.20
2019-05-06T20:23:07.683Z,9.20
2019-05-06T20:25:37.417Z,9.20
2019-05-06T20:28:06.810Z,9.20
2019-05-06T20:30:36.482Z,9.20
2019-05-06T20:33:05.857Z,9.10
2019-05-06T20:35:35.166Z,9.20
2019-05-06T20:38:04.892Z,9.30
2019-05-06T20:40:34.278Z,9.40
2019-05-06T20:43:16.655Z,9.40
2019-05-06T20:45:35.617Z,9.30
2019-05-06T20:48:06.020Z,9.30
2019-05-06T20:50:35.346Z,9.30
2019-05-06T20:53:04.655Z,9.40
2019-05-06T20:55:35.650Z,9.30
2019-05-06T20:58:05.368Z,9.30
2019-05-06T21:00:34.685Z,9.30
2019-05-06T21:03:04.113Z,9.30
2019-05-06T21:05:33.458Z,9.30
2019-05-06T21:08:02.783Z,9.40
2019-05-06T21:10:32.979Z,9.30
2019-05-06T21:13:02.596Z,9.50
2019-05-06T21:15:32.537Z,9.50
2019-05-06T21:18:04.486Z,9.30
2019-05-06T21:20:33.320Z,9.30
2019-05-06T21:23:02.743Z,9.40
2019-05-06T21:25:32.320Z,9.30
2019-05-06T21:28:02.820Z,9.30
2019-05-06T21:30:37.033Z,9.20
2019-05-06T21:33:06.585Z,9.10
2019-05-06T21:35:36.070Z,9.20
2019-05-06T21:38:05.763Z,9.30
2019-05-06T21:40:35.097Z,9.20
2019-05-06T21:43:04.438Z,9.10
2019-05-06T21:45:33.731Z,9.10
2019-05-06T21:48:03.127Z,9.10
2019-05-06T21:50:33.226Z,9.10
2019-05-06T21:53:02.920Z,9.10
2019-05-06T21:55:32.520Z,9.00
2019-05-06T21:58:02.411Z,9.10
2019-05-06T22:00:48.877Z,9.00
2019-05-06T22:03:18.736Z,9.10
2019-05-06T22:05:48.242Z,9.20
2019-05-06T22:08:17.577Z,9.20
2019-05-06T22:10:46.857Z,9.20
2019-05-06T22:13:16.213Z,9.10
2019-05-06T22:15:45.512Z,9.20
2019-05-06T22:18:14.803Z,9.20
2019-05-06T22:21:02.947Z,9.20
2019-05-06T22:23:51.189Z,9.20
2019-05-06T22:26:22.868Z,9.10
2019-05-06T22:28:52.522Z,9.10
2019-05-06T22:31:25.584Z,9.20
2019-05-06T22:33:55.088Z,9.20
2019-05-06T22:36:24.560Z,9.10
2019-05-06T22:38:53.817Z,9.10
2019-05-06T22:41:25.199Z,9.10
2019-05-06T22:43:54.249Z,9.20
2019-05-06T22:46:23.752Z,9.20
2019-05-06T22:48:55.963Z,9.20
2019-05-06T22:51:25.273Z,9.10
2019-05-06T22:53:54.791Z,9.10
2019-05-06T22:56:25.952Z,9.00
2019-05-06T22:58:55.298Z,9.00
2019-05-06T23:01:49.425Z,9.00
2019-05-06T23:04:21.717Z,9.10
2019-05-06T23:06:51.309Z,9.20
2019-05-06T23:09:22.874Z,9.10
2019-05-06T23:11:51.720Z,9.10
2019-05-06T23:14:30.602Z,9.10
2019-05-06T23:16:52.192Z,9.10
2019-05-06T23:19:21.946Z,9.00
2019-05-06T23:21:53.291Z,9.00
2019-05-06T23:24:22.812Z,9.10
2019-05-06T23:26:54.297Z,9.20
2019-05-06T23:29:23.141Z,9.10
2019-05-06T23:31:52.439Z,9.00
2019-05-06T23:34:23.095Z,9.00
2019-05-06T23:37:25.964Z,9.00
2019-05-06T23:40:39.145Z,8.90
2019-05-06T23:43:43.744Z,9.00
2019-05-06T23:46:48.759Z,9.00
2019-05-06T23:49:53.541Z,9.00
2019-05-06T23:52:59.405Z,9.00
2019-05-06T23:56:04.680Z,9.00
2019-05-06T23:58:33.990Z,8.90
